Time;durP1;ratioP1;P1;durP2;ratioP2;P2;SDS_P1;SDS_P2;PMS_P1;PMS_P2;Temp;Humidity;BMP_temperature;BMP_pressure;BME280_temperature;BME280_humidity;BME280_pressure;Samples;Min_cycle;Max_cycle;Signal;HPM_P1;HPM_P2
2021/08/26 00:00:06;;;;;;;2.70;2.50;;;;;;;15.85;86.48;99321.84;1690127;84;20979;-73
2021/08/26 00:08:05;;;;;;;2.17;1.98;;;;;;;15.78;87.26;99310.00;1666872;85;21036;-70
2021/08/26 00:10:32;;;;;;;2.30;2.10;;;;;;;15.80;87.33;99309.17;1675999;85;21092;-70
2021/08/26 00:12:59;;;;;;;2.67;2.45;;;;;;;15.83;87.39;99309.93;1690201;83;20971;-71
2021/08/26 00:15:26;;;;;;;3.30;2.55;;;;;;;15.86;87.36;99313.98;1692662;83;21044;-67
2021/08/26 00:17:52;;;;;;;5.12;2.65;;;;;;;15.87;87.32;99321.02;1690508;83;21041;-72
2021/08/26 00:20:20;;;;;;;3.00;2.62;;;;;;;15.86;87.28;99322.11;1674801;85;21123;-71
2021/08/26 00:22:46;;;;;;;1.80;1.70;;;;;;;15.88;87.29;99326.67;1690237;84;21125;-69
2021/08/26 00:25:13;;;;;;;4.67;2.17;;;;;;;15.88;87.27;99327.48;1674949;84;21581;-72
2021/08/26 00:27:39;;;;;;;2.95;2.33;;;;;;;15.88;87.32;99326.67;1689785;84;20976;-71
2021/08/26 00:30:07;;;;;;;2.55;2.35;;;;;;;15.90;87.34;99328.56;1690231;84;21067;-80
2021/08/26 00:32:34;;;;;;;2.27;2.08;;;;;;;15.93;87.27;99323.89;1690403;84;21516;-72
2021/08/26 00:35:00;;;;;;;3.90;2.45;;;;;;;15.94;87.21;99321.44;1689635;84;21071;-74
2021/08/26 00:37:27;;;;;;;3.80;1.50;;;;;;;15.97;87.20;99331.73;1689945;84;20936;-68
2021/08/26 00:39:53;;;;;;;5.03;2.02;;;;;;;15.98;87.16;99333.31;1690053;84;21044;-69
2021/08/26 00:42:19;;;;;;;2.42;2.22;;;;;;;16.00;87.19;99331.13;1675792;85;21528;-69
2021/08/26 00:44:45;;;;;;;1.87;1.70;;;;;;;16.04;86.92;99323.46;1670575;85;21089;-71
2021/08/26 00:47:12;;;;;;;2.58;1.80;;;;;;;16.03;86.77;99325.10;1689896;85;21214;-69
2021/08/26 00:49:38;;;;;;;2.00;1.90;;;;;;;16.01;86.74;99324.61;1689983;84;21024;-71
2021/08/26 00:52:07;;;;;;;1.75;1.65;;;;;;;16.00;86.88;99331.13;1690249;84;20941;-72
2021/08/26 00:54:35;;;;;;;1.90;1.80;;;;;;;16.00;86.89;99321.63;1658291;85;20984;-70
2021/08/26 00:57:01;;;;;;;2.27;2.05;;;;;;;16.00;86.95;99324.34;1675798;84;21032;-71
2021/08/26 00:59:27;;;;;;;2.50;2.30;;;;;;;16.01;86.94;99318.64;1689880;84;21576;-71
2021/08/26 01:02:35;;;;;;;2.17;2.00;;;;;;;16.03;86.95;99327.27;1689560;84;20987;-80
2021/08/26 01:05:24;;;;;;;2.10;2.00;;;;;;;16.04;86.84;99333.50;1671862;84;20944;-79
2021/08/26 01:07:57;;;;;;;1.90;1.80;;;;;;;16.04;86.81;99334.31;1687975;84;20940;-80
2021/08/26 01:10:24;;;;;;;2.40;2.30;;;;;;;16.03;86.85;99338.66;1675775;85;21141;-70
2021/08/26 01:12:55;;;;;;;2.87;2.35;;;;;;;16.03;86.90;99334.59;1684567;84;21147;-72
2021/08/26 01:15:23;;;;;;;2.30;2.10;;;;;;;16.07;86.97;99339.14;1685198;85;20989;-71
2021/08/26 01:17:49;;;;;;;2.02;1.82;;;;;;;16.14;86.80;99333.35;1665534;86;21020;-71
2021/08/26 01:20:16;;;;;;;2.20;2.10;;;;;;;16.19;86.66;99333.27;1665454;86;20976;-71
2021/08/26 01:22:42;;;;;;;2.30;2.10;;;;;;;16.20;86.40;99336.25;1665392;86;21015;-71
2021/08/26 01:25:12;;;;;;;3.20;2.98;;;;;;;16.24;86.24;99333.74;1665620;86;21065;-70
2021/08/26 01:27:51;;;;;;;3.45;2.72;;;;;;;16.23;86.03;99330.77;1640293;86;21095;-71
2021/08/26 01:30:22;;;;;;;2.90;2.50;;;;;;;16.22;85.96;99329.15;1664754;86;21048;-71
2021/08/26 01:32:53;;;;;;;3.00;2.50;;;;;;;16.24;86.05;99329.13;1665797;86;21019;-72
2021/08/26 01:35:21;;;;;;;2.95;2.20;;;;;;;16.30;85.96;99331.22;1665176;86;21035;-70
2021/08/26 01:37:47;;;;;;;2.60;2.40;;;;;;;16.38;85.78;99330.53;1663042;86;21045;-70
2021/08/26 01:40:13;;;;;;;2.87;2.58;;;;;;;16.42;85.34;99332.90;1665355;86;20920;-70
2021/08/26 01:42:42;;;;;;;2.62;2.42;;;;;;;16.39;85.15;99334.31;1665542;86;21314;-70
2021/08/26 01:45:10;;;;;;;3.30;3.00;;;;;;;16.38;85.29;99333.24;1665440;86;38225;-71
2021/08/26 01:47:37;;;;;;;3.42;2.67;;;;;;;16.41;85.16;99334.00;1663901;85;21050;-71
2021/08/26 01:50:03;;;;;;;3.27;2.98;;;;;;;16.36;85.02;99338.95;1658998;85;21516;-71
2021/08/26 01:52:30;;;;;;;2.85;2.20;;;;;;;16.38;85.15;99338.13;1658317;85;21024;-71
2021/08/26 01:55:00;;;;;;;2.37;2.17;;;;;;;16.40;85.13;99326.98;1656233;86;20972;-71
2021/08/26 01:57:27;;;;;;;3.00;2.80;;;;;;;16.45;85.05;99324.19;1658328;86;20932;-72
2021/08/26 01:59:54;;;;;;;4.33;2.87;;;;;;;16.49;84.77;99322.48;1658909;85;21024;-70
2021/08/26 02:02:20;;;;;;;3.00;2.65;;;;;;;16.55;84.55;99325.34;1651280;85;21143;-70
2021/08/26 02:04:46;;;;;;;3.17;2.87;;;;;;;16.57;84.14;99311.73;1643163;85;20960;-72
2021/08/26 02:07:13;;;;;;;3.40;2.92;;;;;;;16.54;83.92;99306.91;1658945;86;21037;-70
2021/08/26 02:09:40;;;;;;;3.37;3.08;;;;;;;16.50;84.04;99311.30;1636656;86;21013;-71
2021/08/26 02:12:07;;;;;;;3.70;3.35;;;;;;;16.50;84.13;99305.88;1638437;85;21077;-71
2021/08/26 02:14:33;;;;;;;3.08;2.87;;;;;;;16.53;84.17;99307.20;1627126;87;21572;-71
2021/08/26 02:17:01;;;;;;;2.95;2.75;;;;;;;16.56;84.04;99308.77;1631096;88;21454;-70
2021/08/26 02:19:27;;;;;;;3.02;2.83;;;;;;;16.54;83.80;99307.46;1634349;86;21039;-70
2021/08/26 02:21:54;;;;;;;3.05;2.85;;;;;;;16.52;83.83;99313.73;1629847;88;21919;-70
2021/08/26 02:24:20;;;;;;;3.10;2.85;;;;;;;16.48;83.77;99302.67;1664269;85;21057;-72
2021/08/26 02:26:47;;;;;;;3.02;2.77;;;;;;;16.48;83.85;99310.00;1664106;86;22088;-70
2021/08/26 02:29:13;;;;;;;3.45;3.05;;;;;;;16.47;83.95;99310.55;1663443;86;20949;-71
2021/08/26 02:31:40;;;;;;;2.83;2.52;;;;;;;16.48;83.96;99309.45;1663343;86;20937;-71
2021/08/26 02:34:06;;;;;;;3.33;3.10;;;;;;;16.47;84.02;99309.74;1665545;86;21056;-70
2021/08/26 02:36:34;;;;;;;2.75;2.55;;;;;;;16.45;84.15;99306.53;1666532;85;21020;-70
2021/08/26 02:39:00;;;;;;;3.47;3.17;;;;;;;16.46;84.21;99301.34;1658690;85;21777;-71
2021/08/26 02:41:28;;;;;;;2.72;2.52;;;;;;;16.43;84.16;99300.59;1666319;86;21573;-71
2021/08/26 02:43:54;;;;;;;2.98;2.77;;;;;;;16.40;84.22;99305.27;1666600;86;21076;-70
2021/08/26 02:46:21;;;;;;;2.40;2.20;;;;;;;16.37;84.42;99304.48;1671583;85;21088;-70
2021/08/26 02:48:47;;;;;;;2.70;2.50;;;;;;;16.32;84.41;99305.92;1684310;84;21044;-70
2021/08/26 02:51:14;;;;;;;2.55;2.25;;;;;;;16.30;84.42;99302.72;1666420;85;22010;-71
2021/08/26 02:53:40;;;;;;;2.37;2.22;;;;;;;16.31;84.58;99304.30;1689694;85;20964;-71
2021/08/26 02:56:07;;;;;;;2.08;1.92;;;;;;;16.35;84.48;99300.73;1687425;85;21040;-71
2021/08/26 02:58:33;;;;;;;2.10;2.00;;;;;;;16.38;84.43;99306.91;1678976;84;21096;-71
2021/08/26 03:01:00;;;;;;;2.65;2.00;;;;;;;16.38;84.31;99302.03;1655148;84;21048;-70
2021/08/26 03:03:27;;;;;;;2.40;2.17;;;;;;;16.37;84.38;99294.98;1663681;84;22129;-71
2021/08/26 03:05:53;;;;;;;1.80;1.70;;;;;;;16.37;84.44;99296.34;1636648;86;20999;-70
2021/08/26 03:08:20;;;;;;;1.98;1.87;;;;;;;16.34;84.54;99286.09;1680360;85;21102;-70
2021/08/26 03:10:48;;;;;;;1.92;1.82;;;;;;;16.30;84.64;99285.08;1687823;85;21110;-68
2021/08/26 03:13:14;;;;;;;4.00;2.67;;;;;;;16.30;84.77;99290.50;1689435;85;21101;-69
2021/08/26 03:15:42;;;;;;;2.12;1.95;;;;;;;16.34;84.80;99292.87;1685032;85;20926;-69
2021/08/26 03:18:09;;;;;;;3.83;2.10;;;;;;;16.41;84.75;99279.70;1674413;84;21067;-69
2021/08/26 03:20:38;;;;;;;2.08;1.80;;;;;;;16.49;84.44;99286.64;1674477;84;20996;-68
2021/08/26 03:23:05;;;;;;;2.40;1.65;;;;;;;16.55;84.00;99285.42;1689595;85;21000;-68
2021/08/26 03:25:32;;;;;;;5.65;1.98;;;;;;;16.56;83.53;99288.95;1690121;85;20960;-68
2021/08/26 03:27:58;;;;;;;1.42;1.32;;;;;;;16.62;83.43;99288.34;1667389;85;21221;-69
2021/08/26 03:30:25;;;;;;;2.27;2.10;;;;;;;16.65;82.99;99287.73;1659747;85;20975;-70
2021/08/26 03:32:51;;;;;;;18.02;14.25;;;;;;;16.59;83.03;99285.69;1663703;84;21055;-69
2021/08/26 03:35:18;;;;;;;4.53;4.08;;;;;;;16.57;83.16;99286.49;1686382;85;21107;-68
2021/08/26 03:37:45;;;;;;;2.20;2.00;;;;;;;16.51;82.98;99287.67;1689790;84;21102;-68
2021/08/26 03:40:12;;;;;;;2.30;2.10;;;;;;;16.46;83.15;99289.12;1687471;83;21068;-70
2021/08/26 03:42:38;;;;;;;2.55;2.35;;;;;;;16.41;83.29;99275.09;1685462;85;21031;-68
2021/08/26 03:45:05;;;;;;;3.83;2.60;;;;;;;16.40;83.64;99279.48;1674456;84;20955;-69
2021/08/26 03:47:31;;;;;;;4.28;2.47;;;;;;;16.39;83.96;99290.08;1675879;85;21012;-68
2021/08/26 03:49:58;;;;;;;3.12;1.82;;;;;;;16.38;84.27;99281.12;1695064;84;20992;-69
2021/08/26 03:52:24;;;;;;;1.92;1.77;;;;;;;16.37;84.41;99282.22;1695766;84;22502;-68
2021/08/26 03:54:51;;;;;;;2.00;1.52;;;;;;;16.41;84.42;99287.85;1674203;84;20996;-69
2021/08/26 03:57:17;;;;;;;1.87;1.77;;;;;;;16.46;84.09;99282.34;1647685;87;21075;-68
2021/08/26 03:59:43;;;;;;;3.47;2.15;;;;;;;16.48;83.94;99284.22;1649711;85;21056;-72
2021/08/26 04:02:10;;;;;;;1.98;1.87;;;;;;;16.54;84.08;99284.38;1677878;85;21080;-69
2021/08/26 04:04:36;;;;;;;2.72;2.52;;;;;;;16.65;83.76;99285.83;1674162;84;21064;-73
2021/08/26 04:07:03;;;;;;;6.67;3.92;;;;;;;16.67;83.22;99285.53;1681710;84;21060;-69
2021/08/26 04:09:29;;;;;;;3.80;2.65;;;;;;;16.69;83.15;99284.11;1671162;84;21052;-68
2021/08/26 04:11:55;;;;;;;5.90;3.35;;;;;;;16.75;82.76;99279.41;1675540;84;20989;-68
2021/08/26 04:14:22;;;;;;;3.10;2.80;;;;;;;16.74;82.46;99277.81;1696080;84;21517;-69
2021/08/26 04:16:49;;;;;;;2.95;2.45;;;;;;;16.67;82.51;99282.27;1695675;84;20944;-69
2021/08/26 04:19:17;;;;;;;5.37;4.03;;;;;;;16.68;82.77;99278.45;1686957;84;21120;-69
2021/08/26 04:21:43;;;;;;;2.77;2.42;;;;;;;16.71;82.77;99287.34;1674975;84;21488;-68
2021/08/26 04:24:11;;;;;;;4.35;3.22;;;;;;;16.71;82.59;99288.70;1694116;84;20987;-68
2021/08/26 04:26:37;;;;;;;5.00;3.37;;;;;;;16.71;82.78;99291.97;1684183;84;21027;-69
2021/08/26 04:29:03;;;;;;;4.37;3.40;;;;;;;16.73;82.68;99288.41;1703906;84;21075;-69
2021/08/26 04:31:31;;;;;;;4.22;3.20;;;;;;;16.78;82.76;99289.68;1674978;84;21130;-70
2021/08/26 04:33:57;;;;;;;3.05;2.72;;;;;;;16.81;82.48;99287.16;1707837;83;20961;-68
2021/08/26 04:36:24;;;;;;;3.87;3.40;;;;;;;16.80;82.49;99284.73;1704524;84;21054;-69
2021/08/26 04:38:50;;;;;;;9.75;7.83;;;;;;;16.77;82.42;99282.08;1695717;84;21193;-68
2021/08/26 04:41:17;;;;;;;7.33;6.05;;;;;;;16.73;82.63;99281.08;1695823;84;21263;-67
2021/08/26 04:43:44;;;;;;;4.20;3.70;;;;;;;16.68;83.11;99281.72;1695525;84;21323;-70
2021/08/26 04:46:10;;;;;;;3.22;2.92;;;;;;;16.61;83.44;99276.67;1695901;84;21082;-69
2021/08/26 04:48:37;;;;;;;5.00;3.10;;;;;;;16.55;83.94;99275.11;1673508;85;21168;-69
2021/08/26 04:51:04;;;;;;;3.70;3.37;;;;;;;16.52;83.90;99278.44;1690058;85;20996;-70
2021/08/26 04:53:31;;;;;;;4.00;2.77;;;;;;;16.50;83.94;99286.06;1688309;85;22128;-69
2021/08/26 04:55:58;;;;;;;5.10;3.85;;;;;;;16.49;85.38;99281.76;1699744;84;21063;-69
2021/08/26 04:58:24;;;;;;;3.60;3.25;;;;;;;16.46;86.31;99281.79;1663051;84;21027;-69
2021/08/26 05:00:51;;;;;;;6.40;3.37;;;;;;;16.44;86.64;99279.94;1670953;85;21568;-69
2021/08/26 05:03:17;;;;;;;5.67;5.03;;;;;;;16.44;87.26;99284.02;1690065;83;21106;-70
2021/08/26 05:05:44;;;;;;;5.40;4.50;;;;;;;16.43;88.27;99276.97;1690077;84;21529;-70
2021/08/26 05:08:11;;;;;;;4.70;4.30;;;;;;;16.43;88.69;99278.33;1665835;85;20956;-69
2021/08/26 05:10:39;;;;;;;5.55;4.37;;;;;;;16.41;89.07;99275.64;1689979;85;21063;-69
2021/08/26 05:13:08;;;;;;;5.30;4.03;;;;;;;16.38;89.36;99274.89;1690098;84;21051;-69
2021/08/26 05:15:38;;;;;;;4.00;3.17;;;;;;;16.34;89.77;99276.05;1660860;85;20982;-71
2021/08/26 05:18:05;;;;;;;5.80;3.55;;;;;;;16.31;89.95;99276.62;1675572;84;21003;-70
2021/08/26 05:20:32;;;;;;;4.67;4.10;;;;;;;16.31;90.43;99272.55;1651185;85;21012;-70
2021/08/26 05:22:58;;;;;;;4.12;3.72;;;;;;;16.31;90.62;99275.81;1689645;84;21531;-69
2021/08/26 05:25:25;;;;;;;3.70;3.27;;;;;;;16.30;90.77;99285.08;1686029;85;21529;-70
2021/08/26 05:27:51;;;;;;;3.67;3.37;;;;;;;16.33;90.74;99284.47;1699812;84;21032;-68
2021/08/26 05:30:17;;;;;;;4.60;4.20;;;;;;;16.39;90.46;99281.38;1699533;84;21835;-69
2021/08/26 05:32:43;;;;;;;5.83;4.53;;;;;;;16.48;90.18;99280.14;1684321;84;21563;-68
2021/08/26 05:35:10;;;;;;;5.65;4.85;;;;;;;16.49;90.05;99283.92;1689690;85;20957;-69
2021/08/26 05:37:38;;;;;;;5.62;5.12;;;;;;;16.45;89.73;99288.31;1689958;85;20936;-68
2021/08/26 05:40:06;;;;;;;4.45;4.03;;;;;;;16.43;89.67;99289.18;1690218;84;20940;-68
2021/08/26 05:42:34;;;;;;;5.28;4.42;;;;;;;16.43;89.80;99287.02;1689849;85;20992;-70
2021/08/26 05:45:02;;;;;;;4.37;3.77;;;;;;;16.46;89.79;99291.84;1689688;83;21022;-70
2021/08/26 05:47:28;;;;;;;6.05;3.90;;;;;;;16.45;89.88;99291.61;1689940;85;21056;-69
2021/08/26 05:49:56;;;;;;;4.97;4.28;;;;;;;16.41;90.13;99288.66;1678564;85;21019;-71
2021/08/26 05:52:23;;;;;;;4.25;3.85;;;;;;;16.37;90.26;99293.63;1673299;85;21011;-69
2021/08/26 05:54:49;;;;;;;4.00;3.62;;;;;;;16.35;90.79;99295.84;1659496;85;21098;-69
2021/08/26 05:57:15;;;;;;;4.90;3.80;;;;;;;16.35;90.85;99295.30;1673650;85;21023;-71
2021/08/26 05:59:41;;;;;;;6.47;5.85;;;;;;;16.31;90.71;99287.47;1673489;84;21256;-69
2021/08/26 06:02:08;;;;;;;4.70;3.87;;;;;;;16.24;90.80;99287.06;1673480;84;20964;-68
2021/08/26 06:04:34;;;;;;;4.70;4.30;;;;;;;16.20;91.05;99281.17;1657496;85;21075;-69
2021/08/26 06:07:00;;;;;;;5.10;4.50;;;;;;;16.19;91.28;99280.36;1673233;85;21195;-69
2021/08/26 06:09:27;;;;;;;4.78;4.37;;;;;;;16.18;92.10;99272.51;1659777;85;21023;-68
2021/08/26 06:11:53;;;;;;;5.30;4.58;;;;;;;16.16;92.35;99270.66;1673465;85;21544;-68
2021/08/26 06:14:19;;;;;;;7.08;6.37;;;;;;;16.13;92.83;99274.20;1673525;84;21528;-69
2021/08/26 06:16:46;;;;;;;4.47;4.08;;;;;;;16.13;93.34;99272.05;1673480;85;21024;-69
2021/08/26 06:19:13;;;;;;;5.15;4.65;;;;;;;16.12;93.75;99278.56;1658534;85;21100;-69
2021/08/26 06:21:40;;;;;;;4.47;3.87;;;;;;;16.11;94.33;99276.40;1655073;85;21543;-70
2021/08/26 06:24:07;;;;;;;4.33;3.92;;;;;;;16.10;94.57;99276.72;1673526;85;21613;-69
2021/08/26 06:26:34;;;;;;;5.35;4.55;;;;;;;16.08;95.00;99273.48;1673301;84;21028;-71
2021/08/26 06:29:00;;;;;;;4.25;3.92;;;;;;;16.06;95.46;99269.73;1673579;85;21050;-69
2021/08/26 06:31:27;;;;;;;5.60;4.28;;;;;;;16.07;96.09;99269.96;1673441;84;21568;-69
2021/08/26 06:33:53;;;;;;;4.87;4.37;;;;;;;16.06;96.00;99277.06;1673451;85;21528;-69
2021/08/26 06:36:20;;;;;;;4.65;4.25;;;;;;;16.07;96.11;99280.00;1673502;84;20947;-69
2021/08/26 06:38:46;;;;;;;8.93;4.83;;;;;;;16.09;96.42;99286.76;1673518;85;20976;-69
2021/08/26 06:41:13;;;;;;;7.95;4.67;;;;;;;16.08;96.53;99290.56;1673413;85;21003;-69
2021/08/26 06:43:40;;;;;;;4.40;4.00;;;;;;;16.07;96.90;99288.95;1673496;85;21143;-70
2021/08/26 06:46:06;;;;;;;7.10;6.45;;;;;;;16.07;97.00;99290.85;1673576;85;21054;-69
2021/08/26 06:48:33;;;;;;;8.33;5.62;;;;;;;16.08;96.98;99295.19;1673358;84;21078;-69
2021/08/26 06:50:59;;;;;;;7.83;5.40;;;;;;;16.07;96.99;99301.16;1687986;84;20999;-69
2021/08/26 06:53:26;;;;;;;5.50;5.00;;;;;;;16.07;97.21;99301.70;1689990;84;21075;-69
2021/08/26 06:55:52;;;;;;;8.48;6.28;;;;;;;16.09;97.28;99304.94;1690123;85;21228;-70
2021/08/26 06:58:18;;;;;;;7.60;6.45;;;;;;;16.11;97.01;99304.88;1690290;84;21042;-70
2021/08/26 07:00:45;;;;;;;7.22;5.10;;;;;;;16.18;97.03;99296.38;1685063;85;21090;-70
2021/08/26 07:03:12;;;;;;;7.45;5.62;;;;;;;16.20;96.34;99305.05;1686492;83;21035;-70
2021/08/26 07:05:38;;;;;;;4.80;4.40;;;;;;;16.20;96.32;99302.88;1665115;85;21063;-68
2021/08/26 07:08:06;;;;;;;4.95;4.45;;;;;;;16.27;96.49;99303.29;1665173;85;21818;-69
2021/08/26 07:10:32;;;;;;;10.90;5.87;;;;;;;16.30;96.30;99301.36;1663016;85;21052;-69
2021/08/26 07:12:58;;;;;;;5.00;4.37;;;;;;;16.31;96.17;99310.54;1666663;84;21019;-69
2021/08/26 07:15:26;;;;;;;4.85;4.03;;;;;;;16.31;95.93;99309.18;1690947;84;21520;-70
2021/08/26 07:17:54;;;;;;;6.50;4.35;;;;;;;16.32;95.99;99314.06;1690160;85;21027;-70
2021/08/26 07:20:20;;;;;;;4.58;3.10;;;;;;;16.29;95.95;99319.55;1689938;85;21070;-70
2021/08/26 07:22:47;;;;;;;7.37;5.90;;;;;;;16.29;95.81;99312.77;1690392;84;21070;-68
2021/08/26 07:25:13;;;;;;;6.08;5.10;;;;;;;16.24;95.77;99316.91;1665369;85;21611;-69
2021/08/26 07:27:39;;;;;;;4.70;4.30;;;;;;;16.24;95.97;99329.13;1690129;85;21079;-68
2021/08/26 07:30:06;;;;;;;9.10;4.58;;;;;;;16.29;96.42;99326.33;1690106;85;21043;-69
2021/08/26 07:32:32;;;;;;;5.05;4.65;;;;;;;16.32;96.28;99320.30;1685870;83;21010;-70
2021/08/26 07:34:59;;;;;;;4.80;4.08;;;;;;;16.29;95.87;99324.17;1688548;85;20948;-70
2021/08/26 07:37:25;;;;;;;4.10;3.65;;;;;;;16.28;95.87;99331.50;1666676;84;20912;-69
2021/08/26 07:39:51;;;;;;;4.65;4.00;;;;;;;16.26;95.87;99326.12;1689917;85;21110;-69
2021/08/26 07:42:20;;;;;;;5.40;4.90;;;;;;;16.26;96.06;99319.34;1690466;84;21046;-69
2021/08/26 07:44:47;;;;;;;5.78;3.92;;;;;;;16.30;96.37;99325.78;1670697;84;22372;-70
2021/08/26 07:47:13;;;;;;;4.35;3.95;;;;;;;16.35;96.63;99320.28;1700047;84;21536;-70
2021/08/26 07:49:40;;;;;;;5.17;4.67;;;;;;;16.41;96.58;99324.49;1690148;84;20999;-70
2021/08/26 07:52:06;;;;;;;6.95;5.50;;;;;;;16.41;96.30;99317.16;1690570;84;21536;-70
2021/08/26 07:54:33;;;;;;;5.47;4.97;;;;;;;16.39;95.96;99323.45;1690634;84;21036;-69
2021/08/26 07:56:59;;;;;;;5.53;4.80;;;;;;;16.38;96.07;99323.20;1668408;84;21122;-68
2021/08/26 07:59:25;;;;;;;5.80;5.20;;;;;;;16.35;95.95;99327.06;1668339;84;21023;-68
2021/08/26 08:01:52;;;;;;;6.83;5.55;;;;;;;16.34;96.14;99326.25;1690635;83;21047;-70
2021/08/26 08:04:18;;;;;;;6.22;5.62;;;;;;;16.44;96.09;99332.06;1667960;84;21075;-69
2021/08/26 08:06:47;;;;;;;5.70;5.15;;;;;;;16.46;95.82;99334.72;1690605;84;21004;-70
2021/08/26 08:09:13;;;;;;;7.78;6.78;;;;;;;16.45;95.46;99333.11;1690576;84;21512;-69
2021/08/26 08:11:40;;;;;;;7.70;6.90;;;;;;;16.41;95.14;99332.09;1690519;84;20939;-70
2021/08/26 08:14:06;;;;;;;6.83;6.22;;;;;;;16.39;95.12;99337.03;1690577;84;21060;-68
2021/08/26 08:16:32;;;;;;;10.32;9.23;;;;;;;16.44;95.17;99334.23;1668404;84;21048;-68
2021/08/26 08:18:58;;;;;;;9.60;8.70;;;;;;;16.47;95.01;99332.81;1667173;84;21032;-70
2021/08/26 08:21:25;;;;;;;11.90;7.53;;;;;;;16.52;94.90;99336.80;1690587;84;21134;-69
2021/08/26 08:23:51;;;;;;;8.23;7.50;;;;;;;16.53;94.62;99333.80;1690626;84;21585;-70
2021/08/26 08:26:17;;;;;;;8.73;7.42;;;;;;;16.49;94.65;99331.98;1690651;84;21137;-68
2021/08/26 08:28:44;;;;;;;8.70;7.08;;;;;;;16.46;94.95;99337.98;1668543;84;21000;-69
2021/08/26 08:31:10;;;;;;;7.53;6.92;;;;;;;16.48;95.13;99330.36;1690524;84;21028;-70
2021/08/26 08:33:38;;;;;;;7.20;6.28;;;;;;;16.50;95.08;99328.14;1668821;84;21767;-68
2021/08/26 08:36:05;;;;;;;8.18;7.00;;;;;;;16.49;95.32;99330.08;1690344;84;21039;-68
2021/08/26 08:38:32;;;;;;;8.53;6.85;;;;;;;16.47;95.10;99326.84;1668061;84;21075;-69
2021/08/26 08:40:58;;;;;;;6.08;5.58;;;;;;;16.45;95.09;99329.61;1690513;84;21068;-70
2021/08/26 08:43:25;;;;;;;9.03;7.80;;;;;;;16.43;95.10;99329.90;1690670;84;21051;-69
2021/08/26 08:45:52;;;;;;;7.78;6.95;;;;;;;16.48;95.15;99322.22;1690406;84;21047;-68
2021/08/26 08:48:19;;;;;;;7.47;6.83;;;;;;;16.55;94.82;99323.98;1690363;84;21003;-69
2021/08/26 08:50:45;;;;;;;9.03;8.23;;;;;;;16.61;94.92;99326.91;1690044;84;21501;-69
2021/08/26 08:53:14;;;;;;;9.58;8.68;;;;;;;16.61;94.81;99322.83;1689859;85;21059;-69
2021/08/26 08:55:43;;;;;;;8.60;7.83;;;;;;;16.60;95.08;99319.05;1686311;84;21587;-69
2021/08/26 08:58:10;;;;;;;7.42;6.72;;;;;;;16.60;95.12;99323.12;1661282;85;21086;-70
2021/08/26 09:00:36;;;;;;;7.90;7.12;;;;;;;16.64;95.15;99312.75;1688901;83;21551;-74
2021/08/26 09:03:04;;;;;;;7.85;7.12;;;;;;;16.66;94.37;99310.52;1659663;85;20943;-68
2021/08/26 09:05:54;;;;;;;8.88;7.50;;;;;;;16.69;94.17;99325.43;1686518;85;21073;-74
2021/08/26 09:08:22;;;;;;;9.08;8.30;;;;;;;16.70;94.01;99316.16;1694052;84;21684;-68
2021/08/26 09:10:53;;;;;;;9.20;7.67;;;;;;;16.72;93.86;99317.48;1673595;84;21780;-71
2021/08/26 09:13:33;;;;;;;9.30;8.50;;;;;;;16.71;93.48;99316.41;1666168;85;21547;-70
2021/08/26 09:16:01;;;;;;;9.83;8.93;;;;;;;16.68;93.42;99325.98;1690664;84;21491;-69
2021/08/26 09:18:27;;;;;;;9.05;7.55;;;;;;;16.67;93.32;99319.48;1664430;85;21094;-69
2021/08/26 09:21:09;;;;;;;9.10;8.30;;;;;;;16.69;93.47;99320.78;1690227;85;21134;-68
2021/08/26 09:23:53;;;;;;;10.50;9.40;;;;;;;16.67;92.85;99316.77;1690250;85;21791;-68
2021/08/26 09:26:21;;;;;;;10.55;9.33;;;;;;;16.64;92.83;99322.25;1666063;85;21028;-68
2021/08/26 09:28:48;;;;;;;10.25;9.18;;;;;;;16.62;93.21;99326.35;1664819;85;21059;-68
2021/08/26 09:31:26;;;;;;;9.83;8.93;;;;;;;16.63;93.75;99315.20;1690012;85;21079;-67
2021/08/26 09:34:01;;;;;;;8.58;7.67;;;;;;;16.68;93.73;99316.47;1663281;85;21502;-69
2021/08/26 09:36:35;;;;;;;9.68;8.88;;;;;;;16.78;93.33;99314.13;1673559;84;21804;-70
2021/08/26 09:39:17;;;;;;;11.28;10.18;;;;;;;16.80;92.60;99315.97;1609799;87;21045;-70
2021/08/26 09:41:58;;;;;;;14.35;11.90;;;;;;;16.80;92.55;99315.42;1638294;87;21531;-70
2021/08/26 09:44:36;;;;;;;9.58;8.65;;;;;;;16.79;92.47;99323.31;1685308;85;21399;-68
2021/08/26 09:47:07;;;;;;;9.50;8.60;;;;;;;16.86;92.41;99325.64;1692447;84;21102;-71
2021/08/26 09:49:39;;;;;;;14.75;9.30;;;;;;;16.84;91.77;99327.30;1688083;83;21507;-77
2021/08/26 09:52:18;;;;;;;9.80;9.03;;;;;;;16.77;91.40;99328.80;1691662;84;20998;-76
2021/08/26 09:54:51;;;;;;;9.33;8.43;;;;;;;16.71;91.68;99328.63;1690513;84;21008;-75
2021/08/26 09:57:27;;;;;;;10.10;9.10;;;;;;;16.72;91.86;99326.98;1688753;84;21027;-75
2021/08/26 10:00:01;;;;;;;9.88;8.88;;;;;;;16.74;91.78;99330.77;1690454;83;21097;-76
2021/08/26 10:02:30;;;;;;;9.53;8.45;;;;;;;16.73;91.68;99335.94;1689266;84;22019;-75
2021/08/26 10:04:58;;;;;;;9.93;8.98;;;;;;;16.66;92.11;99328.17;1664566;84;21590;-76
2021/08/26 10:07:26;;;;;;;10.90;10.00;;;;;;;16.68;92.71;99325.98;1690377;84;21612;-72
2021/08/26 10:09:53;;;;;;;12.35;10.03;;;;;;;16.64;92.77;99323.61;1688724;84;21177;-72
2021/08/26 10:12:19;;;;;;;9.30;8.50;;;;;;;16.59;92.91;99328.32;1668401;84;21577;-72
2021/08/26 10:14:49;;;;;;;9.70;8.80;;;;;;;16.57;93.42;99324.50;1688360;84;21333;-71
2021/08/26 10:17:16;;;;;;;11.38;10.20;;;;;;;16.54;93.71;99327.83;1690092;84;20936;-71
2021/08/26 10:19:43;;;;;;;12.63;11.53;;;;;;;16.53;94.02;99328.92;1686827;84;21051;-70
2021/08/26 10:22:13;;;;;;;9.50;8.70;;;;;;;16.51;94.20;99318.90;1656154;85;21044;-72
2021/08/26 10:24:39;;;;;;;10.80;9.80;;;;;;;16.56;94.89;99316.91;1690227;84;21065;-70
2021/08/26 10:27:19;;;;;;;9.20;8.45;;;;;;;16.60;95.09;99314.42;1691365;84;22110;-76
2021/08/26 10:29:52;;;;;;;9.80;8.90;;;;;;;16.66;95.08;99317.31;1690375;84;21019;-78
2021/08/26 10:32:25;;;;;;;9.48;8.68;;;;;;;16.71;94.64;99306.91;1688618;84;21042;-73
2021/08/26 10:35:14;;;;;;;10.53;9.40;;;;;;;16.72;94.40;99310.69;1688125;84;21146;-75
2021/08/26 10:37:54;;;;;;;10.28;9.18;;;;;;;16.73;94.38;99305.52;1645398;84;21024;-78
2021/08/26 10:40:34;;;;;;;10.63;8.50;;;;;;;16.78;94.36;99310.05;1641029;87;21841;-76
2021/08/26 10:43:03;;;;;;;11.80;9.70;;;;;;;16.85;94.16;99312.61;1618911;87;20985;-75
2021/08/26 10:45:49;;;;;;;12.58;11.28;;;;;;;16.90;93.71;99313.88;1617187;87;21588;-73
2021/08/26 10:48:19;;;;;;;13.10;11.90;;;;;;;16.97;93.13;99318.93;1699183;84;20971;-72
2021/08/26 10:50:49;;;;;;;11.33;10.32;;;;;;;17.02;92.13;99314.76;1704576;84;21038;-75
2021/08/26 10:53:28;;;;;;;9.93;9.05;;;;;;;17.00;91.15;99299.30;1707623;84;21874;-82
2021/08/26 10:55:56;;;;;;;12.07;10.68;;;;;;;17.00;90.83;99300.11;1684427;84;21006;-76
2021/08/26 10:58:30;;;;;;;11.15;9.95;;;;;;;16.97;90.19;99306.16;1695891;84;21138;-76
2021/08/26 11:00:59;;;;;;;13.30;9.13;;;;;;;16.99;90.22;99299.04;1695450;83;21015;-75
2021/08/26 11:03:46;;;;;;;11.73;10.65;;;;;;;17.04;90.30;99303.56;1695902;84;21022;-77
2021/08/26 11:06:28;;;;;;;10.93;10.03;;;;;;;17.06;89.98;99302.72;1674962;84;21114;-76
2021/08/26 11:09:15;;;;;;;10.85;9.93;;;;;;;17.05;89.92;99304.63;1695827;84;20976;-75
2021/08/26 11:11:45;;;;;;;11.28;10.18;;;;;;;17.02;90.10;99309.33;1681037;84;21504;-76
2021/08/26 11:14:21;;;;;;;10.68;9.78;;;;;;;16.97;89.83;99302.08;1667040;85;21044;-74
2021/08/26 11:16:52;;;;;;;11.93;10.72;;;;;;;16.94;89.78;99302.66;1623086;87;21031;-73
2021/08/26 11:19:26;;;;;;;11.20;10.28;;;;;;;16.94;90.23;99306.73;1655445;85;21105;-73
2021/08/26 11:21:57;;;;;;;10.13;9.23;;;;;;;16.95;90.46;99300.75;1682627;84;21494;-74
2021/08/26 11:24:32;;;;;;;8.80;8.00;;;;;;;16.97;90.33;99302.08;1703087;84;22192;-72
2021/08/26 11:27:17;;;;;;;9.78;8.55;;;;;;;16.99;89.69;99300.40;1690850;84;21512;-75
2021/08/26 11:29:43;;;;;;;9.05;8.25;;;;;;;17.04;90.05;99296.77;1650164;85;21062;-76
2021/08/26 11:32:12;;;;;;;10.00;9.10;;;;;;;17.04;89.33;99299.48;1667543;85;21042;-74
2021/08/26 11:34:48;;;;;;;8.38;7.58;;;;;;;17.03;89.31;99297.88;1648380;86;20967;-73
2021/08/26 11:37:22;;;;;;;8.75;8.05;;;;;;;17.04;89.51;99294.05;1668402;84;21063;-79
2021/08/26 11:40:00;;;;;;;9.00;8.20;;;;;;;17.03;88.99;99293.25;1695817;84;21616;-81
2021/08/26 11:42:44;;;;;;;9.85;8.95;;;;;;;17.06;88.95;99287.23;1695734;84;21051;-76